Rechercher aéroport 
image banner adimage banner adimage banner ad
image banner ad

O21 - Hoopa

Situé à Hoopa, United States

ICAO - O21, IATA -

Données fournies par Airmate  

Information générale

Coordonnées: N41°2'29" W123°40'4"
Élévation : 356 feet MSL.
Variation magnétique : 17° East
Voir autres Aéroports à California

Données opérationnelles

Special qualification required
Heure actuelle UTC:
Heure actuelle locale:
Météo à : KACV - Arcata ( 38 km )
METAR: KACV 251300Z AUTO 00000KT 1/2SM R32/2000VP6000FT FG VV002 12/11 A2997 RMK AO2 T01170111
TAF: KACV 251128Z 2512/2612 00000KT P6SM OVC004 TEMPO 2512/2515 3SM BR FM251700 22004KT 4SM BR BKN008 FM252100 28008KT P6SM FEW005 FM260200 26005KT 5SM BR BKN003
Voir NOTAMs / SUP AIP / TFR affectant cet aéroport [VIEW]
Fréquences de communication: [VIEW]

Pistes:

Identifiant RWYQFULongueur (ft)Largeur (ft)SurfaceLDA (ft)
14232550ASPH
32232550ASPH

Coordonnées de l'aéroport

Adresse: Hoopa United States

Vue satellite de O21